sensor_id;sensor_type;location;lat;lon;timestamp;temperature;humidity
19031;DHT22;9648;51.130;13.978;2023-06-10T00:00:45;16.40;99.90
19031;DHT22;9648;51.130;13.978;2023-06-10T00:03:11;16.40;99.90
19031;DHT22;9648;51.130;13.978;2023-06-10T00:05:38;16.40;99.90
19031;DHT22;9648;51.130;13.978;2023-06-10T00:08:06;16.30;99.90
19031;DHT22;9648;51.130;13.978;2023-06-10T00:10:35;16.30;99.90
19031;DHT22;9648;51.130;13.978;2023-06-10T00:13:07;16.20;99.90
19031;DHT22;9648;51.130;13.978;2023-06-10T00:15:41;16.20;99.90
19031;DHT22;9648;51.130;13.978;2023-06-10T00:18:15;16.10;99.90
19031;DHT22;9648;51.130;13.978;2023-06-10T00:20:48;16.20;99.90
19031;DHT22;9648;51.130;13.978;2023-06-10T00:23:20;16.20;99.90
19031;DHT22;9648;51.130;13.978;2023-06-10T00:25:46;16.20;99.90
19031;DHT22;9648;51.130;13.978;2023-06-10T00:28:13;16.20;99.90
19031;DHT22;9648;51.130;13.978;2023-06-10T00:30:40;16.20;99.90
19031;DHT22;9648;51.130;13.978;2023-06-10T00:33:07;16.10;99.90
19031;DHT22;9648;51.130;13.978;2023-06-10T00:35:33;16.20;99.90
19031;DHT22;9648;51.130;13.978;2023-06-10T00:38:00;16.10;99.90
19031;DHT22;9648;51.130;13.978;2023-06-10T00:40:28;16.10;99.90
19031;DHT22;9648;51.130;13.978;2023-06-10T00:42:55;16.10;99.90
19031;DHT22;9648;51.130;13.978;2023-06-10T00:45:22;16.10;99.90
19031;DHT22;9648;51.130;13.978;2023-06-10T00:47:48;16.10;99.90
19031;DHT22;9648;51.130;13.978;2023-06-10T00:50:18;16.00;99.90
19031;DHT22;9648;51.130;13.978;2023-06-10T00:52:47;16.00;99.90
19031;DHT22;9648;51.130;13.978;2023-06-10T00:55:17;16.00;99.90
19031;DHT22;9648;51.130;13.978;2023-06-10T00:57:46;15.90;99.90
19031;DHT22;9648;51.130;13.978;2023-06-10T01:00:15;15.90;99.90
19031;DHT22;9648;51.130;13.978;2023-06-10T01:02:41;15.90;99.90
19031;DHT22;9648;51.130;13.978;2023-06-10T01:05:09;15.80;99.90
19031;DHT22;9648;51.130;13.978;2023-06-10T01:07:38;15.80;99.90
19031;DHT22;9648;51.130;13.978;2023-06-10T01:10:14;15.80;99.90
19031;DHT22;9648;51.130;13.978;2023-06-10T01:12:46;15.80;99.90
19031;DHT22;9648;51.130;13.978;2023-06-10T01:15:26;15.80;99.90
19031;DHT22;9648;51.130;13.978;2023-06-10T01:17:54;15.70;99.90
19031;DHT22;9648;51.130;13.978;2023-06-10T01:20:23;15.70;99.90
19031;DHT22;9648;51.130;13.978;2023-06-10T01:22:53;15.70;99.90
19031;DHT22;9648;51.130;13.978;2023-06-10T01:25:21;15.60;99.90
19031;DHT22;9648;51.130;13.978;2023-06-10T01:27:54;15.60;99.90
19031;DHT22;9648;51.130;13.978;2023-06-10T01:30:27;15.60;99.90
19031;DHT22;9648;51.130;13.978;2023-06-10T01:32:59;15.50;99.90
19031;DHT22;9648;51.130;13.978;2023-06-10T01:35:30;15.50;99.90
19031;DHT22;9648;51.130;13.978;2023-06-10T01:38:01;15.50;99.90
19031;DHT22;9648;51.130;13.978;2023-06-10T01:40:29;15.40;99.90
19031;DHT22;9648;51.130;13.978;2023-06-10T01:42:58;15.40;99.90
19031;DHT22;9648;51.130;13.978;2023-06-10T01:45:38;15.40;99.90
19031;DHT22;9648;51.130;13.978;2023-06-10T01:48:12;15.30;99.90
19031;DHT22;9648;51.130;13.978;2023-06-10T01:50:39;15.30;99.90
19031;DHT22;9648;51.130;13.978;2023-06-10T01:53:07;15.20;99.90
19031;DHT22;9648;51.130;13.978;2023-06-10T01:55:35;15.20;99.90
19031;DHT22;9648;51.130;13.978;2023-06-10T01:58:42;15.10;99.90
19031;DHT22;9648;51.130;13.978;2023-06-10T02:01:28;15.10;99.90
19031;DHT22;9648;51.130;13.978;2023-06-10T02:03:55;15.10;99.90
19031;DHT22;9648;51.130;13.978;2023-06-10T02:06:22;15.10;99.90
19031;DHT22;9648;51.130;13.978;2023-06-10T02:08:53;15.00;99.90
19031;DHT22;9648;51.130;13.978;2023-06-10T02:11:20;15.00;99.90
19031;DHT22;9648;51.130;13.978;2023-06-10T02:13:47;15.00;99.90
19031;DHT22;9648;51.130;13.978;2023-06-10T02:16:15;15.00;99.90
19031;DHT22;9648;51.130;13.978;2023-06-10T02:18:42;14.90;99.90
19031;DHT22;9648;51.130;13.978;2023-06-10T02:21:09;14.90;99.90
19031;DHT22;9648;51.130;13.978;2023-06-10T02:23:36;14.80;99.90
19031;DHT22;9648;51.130;13.978;2023-06-10T02:26:04;14.80;99.90
19031;DHT22;9648;51.130;13.978;2023-06-10T02:28:31;14.70;99.90
19031;DHT22;9648;51.130;13.978;2023-06-10T02:30:58;14.70;99.90
19031;DHT22;9648;51.130;13.978;2023-06-10T02:33:26;14.60;99.90
19031;DHT22;9648;51.130;13.978;2023-06-10T02:35:53;14.60;99.90
19031;DHT22;9648;51.130;13.978;2023-06-10T02:38:19;14.60;99.90
19031;DHT22;9648;51.130;13.978;2023-06-10T02:40:46;14.60;99.90
19031;DHT22;9648;51.130;13.978;2023-06-10T02:43:14;14.60;99.90
19031;DHT22;9648;51.130;13.978;2023-06-10T02:45:41;14.50;99.90
19031;DHT22;9648;51.130;13.978;2023-06-10T02:48:08;14.50;99.90
19031;DHT22;9648;51.130;13.978;2023-06-10T02:50:34;14.40;99.90
19031;DHT22;9648;51.130;13.978;2023-06-10T02:53:01;14.50;99.90
19031;DHT22;9648;51.130;13.978;2023-06-10T02:55:28;14.40;99.90
19031;DHT22;9648;51.130;13.978;2023-06-10T02:57:54;14.40;99.90
19031;DHT22;9648;51.130;13.978;2023-06-10T03:00:25;14.40;99.90
19031;DHT22;9648;51.130;13.978;2023-06-10T03:02:52;14.40;99.90
19031;DHT22;9648;51.130;13.978;2023-06-10T03:05:22;14.40;99.90
19031;DHT22;9648;51.130;13.978;2023-06-10T03:07:49;14.40;99.90
19031;DHT22;9648;51.130;13.978;2023-06-10T03:10:16;14.40;99.90
19031;DHT22;9648;51.130;13.978;2023-06-10T03:12:43;14.30;99.90
19031;DHT22;9648;51.130;13.978;2023-06-10T03:15:10;14.40;99.90
19031;DHT22;9648;51.130;13.978;2023-06-10T03:17:39;14.40;99.90
19031;DHT22;9648;51.130;13.978;2023-06-10T03:20:08;14.30;99.90
19031;DHT22;9648;51.130;13.978;2023-06-10T03:22:36;14.30;99.90
19031;DHT22;9648;51.130;13.978;2023-06-10T03:25:05;14.30;99.90
19031;DHT22;9648;51.130;13.978;2023-06-10T03:27:33;14.30;99.90
19031;DHT22;9648;51.130;13.978;2023-06-10T03:30:01;14.30;99.90
19031;DHT22;9648;51.130;13.978;2023-06-10T03:32:28;14.40;99.90
19031;DHT22;9648;51.130;13.978;2023-06-10T03:34:57;14.40;99.90
19031;DHT22;9648;51.130;13.978;2023-06-10T03:37:24;14.40;99.90
19031;DHT22;9648;51.130;13.978;2023-06-10T03:39:51;14.40;99.90
19031;DHT22;9648;51.130;13.978;2023-06-10T03:42:18;14.40;99.90
19031;DHT22;9648;51.130;13.978;2023-06-10T03:44:44;14.40;99.90
19031;DHT22;9648;51.130;13.978;2023-06-10T03:47:11;14.50;99.90
19031;DHT22;9648;51.130;13.978;2023-06-10T03:49:39;14.50;99.90
19031;DHT22;9648;51.130;13.978;2023-06-10T03:52:07;14.50;99.90
19031;DHT22;9648;51.130;13.978;2023-06-10T03:54:34;14.60;99.90
19031;DHT22;9648;51.130;13.978;2023-06-10T03:57:01;14.60;99.90
19031;DHT22;9648;51.130;13.978;2023-06-10T03:59:28;14.60;99.90
19031;DHT22;9648;51.130;13.978;2023-06-10T04:01:55;14.60;99.90
19031;DHT22;9648;51.130;13.978;2023-06-10T04:04:23;14.70;99.90
19031;DHT22;9648;51.130;13.978;2023-06-10T04:06:50;14.70;99.90
19031;DHT22;9648;51.130;13.978;2023-06-10T04:09:18;14.70;99.90
19031;DHT22;9648;51.130;13.978;2023-06-10T04:11:45;14.80;99.90
19031;DHT22;9648;51.130;13.978;2023-06-10T04:14:12;14.80;99.90
19031;DHT22;9648;51.130;13.978;2023-06-10T04:16:39;14.80;99.90
19031;DHT22;9648;51.130;13.978;2023-06-10T04:19:06;14.80;99.90
19031;DHT22;9648;51.130;13.978;2023-06-10T04:21:32;14.90;99.90
19031;DHT22;9648;51.130;13.978;2023-06-10T04:23:59;14.90;99.90
19031;DHT22;9648;51.130;13.978;2023-06-10T04:26:28;14.90;99.90
19031;DHT22;9648;51.130;13.978;2023-06-10T04:28:55;15.00;99.90
19031;DHT22;9648;51.130;13.978;2023-06-10T04:31:22;15.00;99.90
19031;DHT22;9648;51.130;13.978;2023-06-10T04:33:49;15.00;99.90
19031;DHT22;9648;51.130;13.978;2023-06-10T04:36:16;15.10;99.90
19031;DHT22;9648;51.130;13.978;2023-06-10T04:38:42;15.20;99.90
19031;DHT22;9648;51.130;13.978;2023-06-10T04:41:09;15.20;99.90
19031;DHT22;9648;51.130;13.978;2023-06-10T04:43:38;15.20;99.90
19031;DHT22;9648;51.130;13.978;2023-06-10T04:46:05;15.30;99.90
19031;DHT22;9648;51.130;13.978;2023-06-10T04:48:32;15.30;99.90
19031;DHT22;9648;51.130;13.978;2023-06-10T04:51:00;15.40;99.90
19031;DHT22;9648;51.130;13.978;2023-06-10T04:53:27;15.40;99.90
19031;DHT22;9648;51.130;13.978;2023-06-10T04:55:56;15.50;99.90
19031;DHT22;9648;51.130;13.978;2023-06-10T04:58:23;15.60;99.90
19031;DHT22;9648;51.130;13.978;2023-06-10T05:00:51;15.70;99.90
19031;DHT22;9648;51.130;13.978;2023-06-10T05:03:17;15.70;99.90
19031;DHT22;9648;51.130;13.978;2023-06-10T05:05:44;15.80;99.90
19031;DHT22;9648;51.130;13.978;2023-06-10T05:08:11;15.80;99.90
19031;DHT22;9648;51.130;13.978;2023-06-10T05:10:37;15.90;99.90
19031;DHT22;9648;51.130;13.978;2023-06-10T05:13:04;15.90;99.90
19031;DHT22;9648;51.130;13.978;2023-06-10T05:15:31;16.00;99.90
19031;DHT22;9648;51.130;13.978;2023-06-10T05:17:59;16.00;99.90
19031;DHT22;9648;51.130;13.978;2023-06-10T05:20:28;16.10;99.90
19031;DHT22;9648;51.130;13.978;2023-06-10T05:22:55;16.20;99.90
19031;DHT22;9648;51.130;13.978;2023-06-10T05:25:21;16.20;99.90
19031;DHT22;9648;51.130;13.978;2023-06-10T05:27:48;16.30;99.90
19031;DHT22;9648;51.130;13.978;2023-06-10T05:30:15;16.30;99.90
19031;DHT22;9648;51.130;13.978;2023-06-10T05:32:42;16.40;99.90
19031;DHT22;9648;51.130;13.978;2023-06-10T05:35:10;16.50;99.90
19031;DHT22;9648;51.130;13.978;2023-06-10T05:37:36;16.60;99.90
19031;DHT22;9648;51.130;13.978;2023-06-10T05:40:04;16.60;99.90
19031;DHT22;9648;51.130;13.978;2023-06-10T05:42:31;16.70;99.90
19031;DHT22;9648;51.130;13.978;2023-06-10T05:44:58;16.80;99.90
19031;DHT22;9648;51.130;13.978;2023-06-10T05:47:25;16.80;99.90
19031;DHT22;9648;51.130;13.978;2023-06-10T05:49:51;16.90;99.90
19031;DHT22;9648;51.130;13.978;2023-06-10T05:52:19;17.00;99.90
19031;DHT22;9648;51.130;13.978;2023-06-10T05:54:46;17.00;99.90
19031;DHT22;9648;51.130;13.978;2023-06-10T05:57:13;17.20;99.90
19031;DHT22;9648;51.130;13.978;2023-06-10T05:59:40;17.30;99.90
19031;DHT22;9648;51.130;13.978;2023-06-10T06:02:06;17.30;99.90
19031;DHT22;9648;51.130;13.978;2023-06-10T06:04:34;17.50;99.90
19031;DHT22;9648;51.130;13.978;2023-06-10T06:07:00;17.70;99.90
19031;DHT22;9648;51.130;13.978;2023-06-10T06:09:28;17.90;99.90
19031;DHT22;9648;51.130;13.978;2023-06-10T06:11:55;18.00;99.90
19031;DHT22;9648;51.130;13.978;2023-06-10T06:14:22;18.20;99.90
19031;DHT22;9648;51.130;13.978;2023-06-10T06:16:48;18.30;99.90
19031;DHT22;9648;51.130;13.978;2023-06-10T06:19:15;18.50;99.90
19031;DHT22;9648;51.130;13.978;2023-06-10T06:21:42;18.70;99.90
19031;DHT22;9648;51.130;13.978;2023-06-10T06:24:09;18.80;99.90
19031;DHT22;9648;51.130;13.978;2023-06-10T06:26:37;18.90;99.90
19031;DHT22;9648;51.130;13.978;2023-06-10T06:29:03;19.00;99.90
19031;DHT22;9648;51.130;13.978;2023-06-10T06:31:30;19.20;99.90
19031;DHT22;9648;51.130;13.978;2023-06-10T06:33:57;19.20;99.90
19031;DHT22;9648;51.130;13.978;2023-06-10T06:36:24;19.20;99.90
19031;DHT22;9648;51.130;13.978;2023-06-10T06:38:50;19.30;99.90
19031;DHT22;9648;51.130;13.978;2023-06-10T06:41:17;19.30;99.90
19031;DHT22;9648;51.130;13.978;2023-06-10T06:43:46;19.30;99.90
19031;DHT22;9648;51.130;13.978;2023-06-10T06:46:13;19.40;99.90
19031;DHT22;9648;51.130;13.978;2023-06-10T06:48:41;19.60;99.90
19031;DHT22;9648;51.130;13.978;2023-06-10T06:51:08;19.70;99.90
19031;DHT22;9648;51.130;13.978;2023-06-10T06:53:34;19.80;99.90
19031;DHT22;9648;51.130;13.978;2023-06-10T06:56:02;19.80;99.90
19031;DHT22;9648;51.130;13.978;2023-06-10T06:58:28;19.80;99.90
19031;DHT22;9648;51.130;13.978;2023-06-10T07:00:57;19.80;99.90
19031;DHT22;9648;51.130;13.978;2023-06-10T07:03:23;19.80;99.90
19031;DHT22;9648;51.130;13.978;2023-06-10T07:05:50;19.90;99.90
19031;DHT22;9648;51.130;13.978;2023-06-10T07:08:17;19.90;99.90
19031;DHT22;9648;51.130;13.978;2023-06-10T07:10:43;20.00;99.90
19031;DHT22;9648;51.130;13.978;2023-06-10T07:13:10;20.20;99.90
19031;DHT22;9648;51.130;13.978;2023-06-10T07:15:38;20.30;99.90
19031;DHT22;9648;51.130;13.978;2023-06-10T07:18:06;20.40;99.90
19031;DHT22;9648;51.130;13.978;2023-06-10T07:20:33;20.50;99.90
19031;DHT22;9648;51.130;13.978;2023-06-10T07:23:00;20.40;99.90
19031;DHT22;9648;51.130;13.978;2023-06-10T07:25:26;20.50;99.90
19031;DHT22;9648;51.130;13.978;2023-06-10T07:27:53;20.50;99.90
19031;DHT22;9648;51.130;13.978;2023-06-10T07:30:20;20.70;99.90
19031;DHT22;9648;51.130;13.978;2023-06-10T07:32:47;20.70;99.90
19031;DHT22;9648;51.130;13.978;2023-06-10T07:35:15;20.70;99.90
19031;DHT22;9648;51.130;13.978;2023-06-10T07:37:41;20.60;99.90
19031;DHT22;9648;51.130;13.978;2023-06-10T07:40:09;20.70;99.90
19031;DHT22;9648;51.130;13.978;2023-06-10T07:42:36;20.70;99.90
19031;DHT22;9648;51.130;13.978;2023-06-10T07:45:04;20.80;99.90
19031;DHT22;9648;51.130;13.978;2023-06-10T07:47:32;20.90;99.90
19031;DHT22;9648;51.130;13.978;2023-06-10T07:49:59;21.10;99.90
19031;DHT22;9648;51.130;13.978;2023-06-10T07:52:28;21.10;99.90
19031;DHT22;9648;51.130;13.978;2023-06-10T07:54:55;21.10;99.90
19031;DHT22;9648;51.130;13.978;2023-06-10T07:57:21;21.10;99.90
19031;DHT22;9648;51.130;13.978;2023-06-10T07:59:48;21.20;99.90
19031;DHT22;9648;51.130;13.978;2023-06-10T08:02:15;21.30;99.90
19031;DHT22;9648;51.130;13.978;2023-06-10T08:04:41;21.30;99.90
19031;DHT22;9648;51.130;13.978;2023-06-10T08:07:08;21.40;99.90
19031;DHT22;9648;51.130;13.978;2023-06-10T08:09:36;21.50;99.90
19031;DHT22;9648;51.130;13.978;2023-06-10T08:12:04;21.50;99.90
19031;DHT22;9648;51.130;13.978;2023-06-10T08:14:31;21.50;99.90
19031;DHT22;9648;51.130;13.978;2023-06-10T08:16:57;21.40;99.90
19031;DHT22;9648;51.130;13.978;2023-06-10T08:19:24;21.40;99.90
19031;DHT22;9648;51.130;13.978;2023-06-10T08:21:51;21.40;99.90
19031;DHT22;9648;51.130;13.978;2023-06-10T08:24:17;21.20;99.90
19031;DHT22;9648;51.130;13.978;2023-06-10T08:26:46;21.20;99.90
19031;DHT22;9648;51.130;13.978;2023-06-10T08:29:13;21.10;99.90
19031;DHT22;9648;51.130;13.978;2023-06-10T08:31:41;21.00;99.90
19031;DHT22;9648;51.130;13.978;2023-06-10T08:34:08;21.00;99.90
19031;DHT22;9648;51.130;13.978;2023-06-10T08:36:35;21.00;99.90
19031;DHT22;9648;51.130;13.978;2023-06-10T08:39:02;21.00;99.90
19031;DHT22;9648;51.130;13.978;2023-06-10T08:41:30;21.10;99.90
19031;DHT22;9648;51.130;13.978;2023-06-10T08:44:08;21.20;99.90
19031;DHT22;9648;51.130;13.978;2023-06-10T08:46:36;21.30;99.90
19031;DHT22;9648;51.130;13.978;2023-06-10T08:49:05;21.40;99.90
19031;DHT22;9648;51.130;13.978;2023-06-10T08:51:34;21.40;99.90
19031;DHT22;9648;51.130;13.978;2023-06-10T08:54:02;21.50;99.90
19031;DHT22;9648;51.130;13.978;2023-06-10T08:56:30;21.60;99.90
19031;DHT22;9648;51.130;13.978;2023-06-10T08:58:59;21.80;99.90
19031;DHT22;9648;51.130;13.978;2023-06-10T09:01:28;21.90;99.90
19031;DHT22;9648;51.130;13.978;2023-06-10T09:03:55;22.00;99.90
19031;DHT22;9648;51.130;13.978;2023-06-10T09:06:23;22.10;99.90
19031;DHT22;9648;51.130;13.978;2023-06-10T09:09:08;22.20;99.90
19031;DHT22;9648;51.130;13.978;2023-06-10T09:11:54;22.30;99.90
19031;DHT22;9648;51.130;13.978;2023-06-10T09:14:39;22.30;99.90
19031;DHT22;9648;51.130;13.978;2023-06-10T09:17:26;22.30;99.90
19031;DHT22;9648;51.130;13.978;2023-06-10T09:20:12;22.40;99.90
19031;DHT22;9648;51.130;13.978;2023-06-10T09:22:58;22.50;99.90
19031;DHT22;9648;51.130;13.978;2023-06-10T09:25:44;22.60;99.90
19031;DHT22;9648;51.130;13.978;2023-06-10T09:28:30;22.60;99.90
19031;DHT22;9648;51.130;13.978;2023-06-10T09:31:04;22.70;99.90
19031;DHT22;9648;51.130;13.978;2023-06-10T09:33:32;22.80;99.90
19031;DHT22;9648;51.130;13.978;2023-06-10T09:36:01;22.80;99.90
19031;DHT22;9648;51.130;13.978;2023-06-10T09:38:49;22.90;99.90
19031;DHT22;9648;51.130;13.978;2023-06-10T09:41:35;23.00;99.90
19031;DHT22;9648;51.130;13.978;2023-06-10T09:44:21;22.90;99.90
19031;DHT22;9648;51.130;13.978;2023-06-10T09:47:08;22.90;99.90
19031;DHT22;9648;51.130;13.978;2023-06-10T09:49:55;22.90;99.90
19031;DHT22;9648;51.130;13.978;2023-06-10T09:52:41;22.90;99.90
19031;DHT22;9648;51.130;13.978;2023-06-10T09:55:26;23.10;99.90
19031;DHT22;9648;51.130;13.978;2023-06-10T09:57:53;23.40;99.90
19031;DHT22;9648;51.130;13.978;2023-06-10T10:00:22;23.50;99.90
19031;DHT22;9648;51.130;13.978;2023-06-10T10:02:53;23.80;99.90
19031;DHT22;9648;51.130;13.978;2023-06-10T10:05:22;23.90;99.90
19031;DHT22;9648;51.130;13.978;2023-06-10T10:07:49;23.90;99.90
19031;DHT22;9648;51.130;13.978;2023-06-10T10:10:18;23.90;99.90
19031;DHT22;9648;51.130;13.978;2023-06-10T10:12:47;23.90;99.90
19031;DHT22;9648;51.130;13.978;2023-06-10T10:15:17;24.00;99.90
19031;DHT22;9648;51.130;13.978;2023-06-10T10:17:48;24.20;99.90
19031;DHT22;9648;51.130;13.978;2023-06-10T10:20:19;24.20;99.90
19031;DHT22;9648;51.130;13.978;2023-06-10T10:22:49;24.40;99.90
19031;DHT22;9648;51.130;13.978;2023-06-10T10:25:23;24.50;99.90
19031;DHT22;9648;51.130;13.978;2023-06-10T10:27:52;24.30;99.90
19031;DHT22;9648;51.130;13.978;2023-06-10T10:30:22;24.10;99.90
19031;DHT22;9648;51.130;13.978;2023-06-10T10:32:56;24.00;99.90
19031;DHT22;9648;51.130;13.978;2023-06-10T10:35:25;24.00;99.90
19031;DHT22;9648;51.130;13.978;2023-06-10T10:37:54;24.10;99.90
19031;DHT22;9648;51.130;13.978;2023-06-10T10:40:21;24.30;99.90
19031;DHT22;9648;51.130;13.978;2023-06-10T10:42:49;24.70;99.90
19031;DHT22;9648;51.130;13.978;2023-06-10T10:45:21;24.80;99.90
19031;DHT22;9648;51.130;13.978;2023-06-10T10:47:52;24.90;99.90
19031;DHT22;9648;51.130;13.978;2023-06-10T10:50:21;24.80;97.90
19031;DHT22;9648;51.130;13.978;2023-06-10T10:52:55;24.90;99.90
19031;DHT22;9648;51.130;13.978;2023-06-10T10:55:22;24.80;96.90
19031;DHT22;9648;51.130;13.978;2023-06-10T10:57:56;24.70;98.10
19031;DHT22;9648;51.130;13.978;2023-06-10T11:00:30;24.70;98.90
19031;DHT22;9648;51.130;13.978;2023-06-10T11:02:58;24.80;97.00
19031;DHT22;9648;51.130;13.978;2023-06-10T11:05:35;24.70;98.40
19031;DHT22;9648;51.130;13.978;2023-06-10T11:08:03;24.60;96.00
19031;DHT22;9648;51.130;13.978;2023-06-10T11:10:31;24.60;96.00
19031;DHT22;9648;51.130;13.978;2023-06-10T11:12:58;24.50;95.20
19031;DHT22;9648;51.130;13.978;2023-06-10T11:15:26;24.50;99.40
19031;DHT22;9648;51.130;13.978;2023-06-10T11:18:13;24.60;94.00
19031;DHT22;9648;51.130;13.978;2023-06-10T11:20:57;24.70;95.50
19031;DHT22;9648;51.130;13.978;2023-06-10T11:23:42;24.80;92.60
19031;DHT22;9648;51.130;13.978;2023-06-10T11:26:13;24.80;94.20
19031;DHT22;9648;51.130;13.978;2023-06-10T11:28:41;24.90;96.00
19031;DHT22;9648;51.130;13.978;2023-06-10T11:31:09;25.00;93.70
19031;DHT22;9648;51.130;13.978;2023-06-10T11:33:46;25.10;97.30
19031;DHT22;9648;51.130;13.978;2023-06-10T11:36:13;25.40;98.10
19031;DHT22;9648;51.130;13.978;2023-06-10T11:38:42;25.70;96.70
19031;DHT22;9648;51.130;13.978;2023-06-10T11:41:10;26.00;95.50
19031;DHT22;9648;51.130;13.978;2023-06-10T11:43:38;26.20;94.40
19031;DHT22;9648;51.130;13.978;2023-06-10T11:46:07;26.40;94.20
19031;DHT22;9648;51.130;13.978;2023-06-10T11:48:34;26.40;93.60
19031;DHT22;9648;51.130;13.978;2023-06-10T11:51:01;26.30;91.00
19031;DHT22;9648;51.130;13.978;2023-06-10T11:53:31;26.00;93.10
19031;DHT22;9648;51.130;13.978;2023-06-10T11:55:59;25.80;92.30
19031;DHT22;9648;51.130;13.978;2023-06-10T11:58:26;25.40;91.10
19031;DHT22;9648;51.130;13.978;2023-06-10T12:00:54;25.40;92.50
19031;DHT22;9648;51.130;13.978;2023-06-10T12:03:21;25.40;92.00
19031;DHT22;9648;51.130;13.978;2023-06-10T12:05:56;25.50;94.60
19031;DHT22;9648;51.130;13.978;2023-06-10T12:08:23;25.60;90.60
19031;DHT22;9648;51.130;13.978;2023-06-10T12:10:50;25.60;80.10
19031;DHT22;9648;51.130;13.978;2023-06-10T12:13:18;25.50;83.60
19031;DHT22;9648;51.130;13.978;2023-06-10T12:15:45;25.70;83.20
19031;DHT22;9648;51.130;13.978;2023-06-10T12:18:16;25.60;78.80
19031;DHT22;9648;51.130;13.978;2023-06-10T12:20:43;25.70;83.10
19031;DHT22;9648;51.130;13.978;2023-06-10T12:23:10;25.80;79.50
19031;DHT22;9648;51.130;13.978;2023-06-10T12:25:37;26.00;86.30
19031;DHT22;9648;51.130;13.978;2023-06-10T12:28:05;26.10;84.70
19031;DHT22;9648;51.130;13.978;2023-06-10T12:30:36;26.30;81.20
19031;DHT22;9648;51.130;13.978;2023-06-10T12:33:03;26.40;75.40
19031;DHT22;9648;51.130;13.978;2023-06-10T12:35:29;26.60;79.10
19031;DHT22;9648;51.130;13.978;2023-06-10T12:37:57;26.70;77.50
19031;DHT22;9648;51.130;13.978;2023-06-10T12:40:26;26.70;72.40
19031;DHT22;9648;51.130;13.978;2023-06-10T12:42:56;26.60;69.90
19031;DHT22;9648;51.130;13.978;2023-06-10T12:45:27;26.70;72.40
19031;DHT22;9648;51.130;13.978;2023-06-10T12:48:06;26.70;68.50
19031;DHT22;9648;51.130;13.978;2023-06-10T12:50:34;26.70;68.90
19031;DHT22;9648;51.130;13.978;2023-06-10T12:53:03;26.70;62.40
19031;DHT22;9648;51.130;13.978;2023-06-10T12:55:30;26.80;64.30
19031;DHT22;9648;51.130;13.978;2023-06-10T12:57:57;27.00;66.80
19031;DHT22;9648;51.130;13.978;2023-06-10T13:00:24;26.90;63.50
19031;DHT22;9648;51.130;13.978;2023-06-10T13:02:53;27.00;67.60
19031;DHT22;9648;51.130;13.978;2023-06-10T13:05:22;27.00;66.00
19031;DHT22;9648;51.130;13.978;2023-06-10T13:07:49;26.90;64.70
19031;DHT22;9648;51.130;13.978;2023-06-10T13:10:16;26.90;57.50
19031;DHT22;9648;51.130;13.978;2023-06-10T13:12:44;26.90;60.10
19031;DHT22;9648;51.130;13.978;2023-06-10T13:15:11;26.80;60.10
19031;DHT22;9648;51.130;13.978;2023-06-10T13:17:39;26.80;58.40
19031;DHT22;9648;51.130;13.978;2023-06-10T13:20:07;26.90;61.50
19031;DHT22;9648;51.130;13.978;2023-06-10T13:22:35;26.70;56.20
19031;DHT22;9648;51.130;13.978;2023-06-10T13:25:02;26.70;56.40
19031;DHT22;9648;51.130;13.978;2023-06-10T13:27:30;26.70;57.60
19031;DHT22;9648;51.130;13.978;2023-06-10T13:29:56;26.60;51.70
19031;DHT22;9648;51.130;13.978;2023-06-10T13:32:23;26.50;52.80
19031;DHT22;9648;51.130;13.978;2023-06-10T13:34:50;26.60;54.20
19031;DHT22;9648;51.130;13.978;2023-06-10T13:37:18;26.60;53.70
19031;DHT22;9648;51.130;13.978;2023-06-10T13:39:46;26.50;54.20
19031;DHT22;9648;51.130;13.978;2023-06-10T13:42:14;26.60;57.80
19031;DHT22;9648;51.130;13.978;2023-06-10T13:44:40;26.50;57.60
19031;DHT22;9648;51.130;13.978;2023-06-10T13:47:07;26.40;57.80
19031;DHT22;9648;51.130;13.978;2023-06-10T13:49:34;26.40;54.10
19031;DHT22;9648;51.130;13.978;2023-06-10T13:52:01;26.40;53.60
19031;DHT22;9648;51.130;13.978;2023-06-10T13:54:27;26.40;55.50
19031;DHT22;9648;51.130;13.978;2023-06-10T13:56:55;26.40;52.70
19031;DHT22;9648;51.130;13.978;2023-06-10T13:59:22;26.40;50.40
19031;DHT22;9648;51.130;13.978;2023-06-10T14:01:49;26.40;52.00
19031;DHT22;9648;51.130;13.978;2023-06-10T14:04:15;26.40;50.50
19031;DHT22;9648;51.130;13.978;2023-06-10T14:06:42;26.50;48.50
19031;DHT22;9648;51.130;13.978;2023-06-10T14:09:09;26.60;48.70
19031;DHT22;9648;51.130;13.978;2023-06-10T14:11:36;26.50;47.60
19031;DHT22;9648;51.130;13.978;2023-06-10T14:14:04;26.50;47.00
19031;DHT22;9648;51.130;13.978;2023-06-10T14:16:30;26.60;47.60
19031;DHT22;9648;51.130;13.978;2023-06-10T14:18:57;26.70;48.10
19031;DHT22;9648;51.130;13.978;2023-06-10T14:21:24;26.90;48.60
19031;DHT22;9648;51.130;13.978;2023-06-10T14:23:51;27.00;47.60
19031;DHT22;9648;51.130;13.978;2023-06-10T14:26:18;27.10;47.90
19031;DHT22;9648;51.130;13.978;2023-06-10T14:28:47;27.30;50.40
19031;DHT22;9648;51.130;13.978;2023-06-10T14:31:16;27.50;46.20
19031;DHT22;9648;51.130;13.978;2023-06-10T14:33:43;27.70;45.90
19031;DHT22;9648;51.130;13.978;2023-06-10T14:36:10;27.80;48.70
19031;DHT22;9648;51.130;13.978;2023-06-10T14:38:36;27.90;47.20
19031;DHT22;9648;51.130;13.978;2023-06-10T14:41:03;27.90;45.50
19031;DHT22;9648;51.130;13.978;2023-06-10T14:43:30;27.90;48.30
19031;DHT22;9648;51.130;13.978;2023-06-10T14:45:56;27.80;46.70
19031;DHT22;9648;51.130;13.978;2023-06-10T14:48:24;27.70;49.30
19031;DHT22;9648;51.130;13.978;2023-06-10T14:50:51;27.60;48.70
19031;DHT22;9648;51.130;13.978;2023-06-10T14:53:20;27.70;52.80
19031;DHT22;9648;51.130;13.978;2023-06-10T14:55:47;27.80;50.20
19031;DHT22;9648;51.130;13.978;2023-06-10T14:58:14;27.70;50.00
19031;DHT22;9648;51.130;13.978;2023-06-10T15:00:40;27.70;51.40
19031;DHT22;9648;51.130;13.978;2023-06-10T15:03:07;27.80;53.40
19031;DHT22;9648;51.130;13.978;2023-06-10T15:05:35;27.90;54.80
19031;DHT22;9648;51.130;13.978;2023-06-10T15:08:03;27.80;51.10
19031;DHT22;9648;51.130;13.978;2023-06-10T15:10:30;27.90;54.40
19031;DHT22;9648;51.130;13.978;2023-06-10T15:12:56;27.90;51.60
19031;DHT22;9648;51.130;13.978;2023-06-10T15:15:23;28.00;51.20
19031;DHT22;9648;51.130;13.978;2023-06-10T15:17:50;27.90;50.20
19031;DHT22;9648;51.130;13.978;2023-06-10T15:20:18;28.00;52.60
19031;DHT22;9648;51.130;13.978;2023-06-10T15:22:46;28.00;51.40
19031;DHT22;9648;51.130;13.978;2023-06-10T15:25:13;27.90;46.20
19031;DHT22;9648;51.130;13.978;2023-06-10T15:27:40;28.00;51.00
19031;DHT22;9648;51.130;13.978;2023-06-10T15:30:07;28.10;47.40
19031;DHT22;9648;51.130;13.978;2023-06-10T15:32:34;28.10;47.70
19031;DHT22;9648;51.130;13.978;2023-06-10T15:35:01;28.00;45.20
19031;DHT22;9648;51.130;13.978;2023-06-10T15:37:30;28.10;45.40
19031;DHT22;9648;51.130;13.978;2023-06-10T15:39:58;28.00;45.20